Time;durP1;ratioP1;P1;durP2;ratioP2;P2;SDS_P1;SDS_P2;PMS_P1;PMS_P2;Temp;Humidity;BMP_temperature;BMP_pressure;BME280_temperature;BME280_humidity;BME280_pressure;Samples;Min_cycle;Max_cycle;Signal;HPM_P1;HPM_P2
2023/03/15 00:00:41;;;;;;;7.97;3.72;;;;;;;4.10;56.32;98682.97;7347848;19;20115;-74
2023/03/15 00:03:06;;;;;;;4.13;2.78;;;;;;;4.18;56.54;98683.34;7345953;19;20358;-77
2023/03/15 00:05:30;;;;;;;5.32;3.25;;;;;;;4.03;56.33;98677.25;7355453;19;20007;-79
2023/03/15 00:07:55;;;;;;;2.67;2.33;;;;;;;3.94;57.33;98678.66;7355130;19;19998;-80
2023/03/15 00:10:20;;;;;;;3.90;2.97;;;;;;;4.01;57.10;98677.34;7353647;19;20014;-78
2023/03/15 00:12:44;;;;;;;6.70;2.65;;;;;;;3.93;57.34;98670.84;7352424;19;20007;-73
2023/03/15 00:15:13;;;;;;;5.55;4.03;;;;;;;3.75;57.24;98675.41;7352374;19;20361;-76
2023/03/15 00:17:37;;;;;;;7.72;3.08;;;;;;;3.76;58.21;98674.47;7349952;19;20031;-78
2023/03/15 00:20:03;;;;;;;5.25;3.15;;;;;;;3.91;58.38;98677.97;7351193;19;20006;-79
2023/03/15 00:22:28;;;;;;;4.90;2.88;;;;;;;3.91;58.43;98673.56;7351902;19;20425;-77
2023/03/15 00:24:52;;;;;;;3.15;2.33;;;;;;;4.07;57.86;98673.47;7349816;19;20665;-78
2023/03/15 00:27:17;;;;;;;9.57;3.35;;;;;;;3.95;57.72;98675.03;7352172;19;20018;-76
2023/03/15 00:29:42;;;;;;;7.10;3.63;;;;;;;3.94;57.66;98665.47;7353064;19;20017;-76
2023/03/15 00:32:07;;;;;;;6.55;3.88;;;;;;;3.82;57.88;98663.56;7347757;19;20007;-81
2023/03/15 00:34:32;;;;;;;3.45;2.70;;;;;;;3.85;58.26;98679.19;7348610;19;20022;-78
2023/03/15 00:36:57;;;;;;;6.78;3.55;;;;;;;3.79;58.78;98674.28;7351646;19;20023;-79
2023/03/15 00:39:24;;;;;;;5.85;3.13;;;;;;;3.94;59.05;98672.53;7347539;19;20015;-76
2023/03/15 00:41:50;;;;;;;6.55;3.78;;;;;;;3.79;59.05;98668.16;7351044;19;20046;-75
2023/03/15 00:44:15;;;;;;;7.43;4.15;;;;;;;3.60;59.36;98663.13;7348117;19;20025;-74
2023/03/15 00:46:39;;;;;;;5.57;3.58;;;;;;;3.86;59.19;98670.34;7352287;19;20086;-73
2023/03/15 00:49:04;;;;;;;6.88;3.58;;;;;;;3.89;59.16;98654.34;7348883;19;20014;-77
2023/03/15 00:51:29;;;;;;;8.20;2.83;;;;;;;4.05;59.21;98661.34;7348814;19;20014;-76
2023/03/15 00:53:53;;;;;;;5.25;3.55;;;;;;;3.95;58.90;98669.78;7345675;19;20018;-73
2023/03/15 00:56:24;;;;;;;6.95;2.90;;;;;;;4.15;58.91;98663.31;7357360;19;20019;-79
2023/03/15 00:58:51;;;;;;;5.93;3.25;;;;;;;4.12;58.53;98647.66;7347524;19;20294;-78
2023/03/15 01:01:28;;;;;;;2.78;2.08;;;;;;;4.43;58.60;98675.66;7354125;19;20794;-79
2023/03/15 01:03:53;;;;;;;7.30;4.07;;;;;;;4.18;58.27;98659.63;7354165;19;20501;-80
2023/03/15 01:06:23;;;;;;;5.32;3.00;;;;;;;4.19;58.96;98669.22;7349484;19;20415;-77
2023/03/15 01:08:48;;;;;;;9.77;4.18;;;;;;;4.11;58.54;98674.97;7348195;19;20022;-72
2023/03/15 01:11:19;;;;;;;7.70;4.15;;;;;;;4.10;58.73;98668.00;7347077;19;20070;-74
2023/03/15 01:13:43;;;;;;;4.95;2.40;;;;;;;4.29;59.32;98673.84;7346378;19;20018;-73
2023/03/15 01:16:11;;;;;;;3.83;2.70;;;;;;;4.28;58.50;98663.41;7349195;19;20010;-77
2023/03/15 01:18:36;;;;;;;3.95;2.58;;;;;;;4.24;59.12;98664.53;7348674;19;20430;-79
2023/03/15 01:21:01;;;;;;;6.03;3.35;;;;;;;4.13;58.79;98661.72;7347516;19;20014;-75
2023/03/15 01:23:26;;;;;;;5.82;3.50;;;;;;;4.13;59.68;98661.72;7352357;19;20034;-77
2023/03/15 01:25:50;;;;;;;5.50;3.28;;;;;;;4.27;59.17;98664.34;7349220;19;20517;-72
2023/03/15 01:28:15;;;;;;;5.88;3.75;;;;;;;4.33;58.36;98658.69;7344069;19;20090;-73
2023/03/15 01:30:40;;;;;;;6.00;3.25;;;;;;;4.14;59.37;98669.53;7348673;19;20353;-74
2023/03/15 01:33:05;;;;;;;3.75;2.78;;;;;;;4.09;59.58;98653.13;7343578;19;20360;-76
2023/03/15 01:35:29;;;;;;;4.60;2.20;;;;;;;4.17;60.05;98663.22;7346449;19;20014;-76
2023/03/15 01:37:54;;;;;;;4.70;2.65;;;;;;;4.13;60.22;98659.06;7349146;19;20386;-74
2023/03/15 01:40:19;;;;;;;6.50;4.35;;;;;;;3.93;59.83;98661.13;7348894;19;20046;-77
2023/03/15 01:42:51;;;;;;;5.70;3.78;;;;;;;4.08;60.05;98666.41;7346306;19;20366;-76
2023/03/15 01:45:58;;;;;;;7.32;4.78;;;;;;;4.23;60.25;98674.25;7348095;19;20332;-78
2023/03/15 01:48:51;;;;;;;5.07;3.60;;;;;;;4.03;59.82;98665.84;7346417;19;20017;-77
2023/03/15 01:51:38;;;;;;;5.60;3.78;;;;;;;3.97;60.47;98662.63;7346112;19;20020;-76
2023/03/15 01:54:13;;;;;;;4.88;3.65;;;;;;;3.85;60.69;98663.34;7342882;19;20003;-76
2023/03/15 01:56:45;;;;;;;6.05;3.05;;;;;;;3.83;61.07;98673.19;7342605;19;20026;-72
2023/03/15 01:59:20;;;;;;;6.38;3.78;;;;;;;3.89;60.90;98672.78;7342420;19;20060;-73
2023/03/15 02:01:45;;;;;;;5.70;3.38;;;;;;;4.11;60.43;98674.13;7340016;19;20014;-75
2023/03/15 02:04:23;;;;;;;5.28;3.22;;;;;;;4.21;60.47;98667.34;7344274;19;20019;-72
2023/03/15 02:06:49;;;;;;;9.68;5.05;;;;;;;4.00;60.31;98665.09;7340241;19;20014;-73
2023/03/15 02:09:17;;;;;;;6.85;2.42;;;;;;;4.04;61.27;98672.81;7340512;19;20019;-72
2023/03/15 02:11:44;;;;;;;6.50;3.38;;;;;;;4.15;60.70;98675.66;7341009;19;20023;-73
2023/03/15 02:14:12;;;;;;;9.52;5.60;;;;;;;4.11;60.70;98674.97;7341284;19;20007;-72
2023/03/15 02:16:39;;;;;;;8.13;4.68;;;;;;;3.96;60.92;98676.75;7338819;19;20010;-74
2023/03/15 02:19:11;;;;;;;6.82;3.85;;;;;;;4.05;61.45;98679.78;7339797;19;20021;-76
2023/03/15 02:21:50;;;;;;;5.80;3.85;;;;;;;4.07;60.97;98680.53;7345970;19;20123;-72
2023/03/15 02:24:36;;;;;;;7.82;3.80;;;;;;;4.28;61.13;98676.59;7340612;19;20015;-73
2023/03/15 02:27:01;;;;;;;7.20;4.20;;;;;;;4.19;60.83;98683.28;7340111;19;20049;-72
2023/03/15 02:29:27;;;;;;;7.72;3.83;;;;;;;4.02;61.08;98683.47;7345268;19;20465;-73
2023/03/15 02:31:53;;;;;;;6.90;3.90;;;;;;;3.94;61.26;98676.03;7343037;19;20023;-72
2023/03/15 02:34:18;;;;;;;7.90;4.70;;;;;;;3.99;61.46;98696.81;7341405;19;20015;-71
2023/03/15 02:36:43;;;;;;;4.03;2.92;;;;;;;3.94;61.42;98670.75;7340895;19;20021;-74
2023/03/15 02:39:19;;;;;;;4.72;3.05;;;;;;;4.11;62.20;98677.63;7340645;19;20082;-75
2023/03/15 02:41:48;;;;;;;7.78;4.05;;;;;;;3.86;61.68;98686.16;7348393;19;20027;-77
2023/03/15 02:44:32;;;;;;;6.57;3.33;;;;;;;3.74;62.00;98680.75;7343392;19;20022;-73
2023/03/15 02:47:02;;;;;;;5.22;3.90;;;;;;;3.90;61.44;98676.28;7341360;19;20011;-75
2023/03/15 02:49:30;;;;;;;10.25;3.60;;;;;;;3.72;61.99;98680.03;7341440;19;20014;-71
2023/03/15 02:51:55;;;;;;;5.13;2.92;;;;;;;3.92;62.51;98685.81;7341600;19;20014;-77
2023/03/15 02:54:19;;;;;;;4.82;3.40;;;;;;;4.07;61.54;98680.53;7342030;19;20118;-72
2023/03/15 02:56:44;;;;;;;5.07;3.25;;;;;;;4.01;61.94;98660.66;7343306;19;20014;-85
2023/03/15 02:59:11;;;;;;;5.45;2.88;;;;;;;4.10;62.00;98685.63;7342808;19;20486;-73
2023/03/15 03:01:36;;;;;;;5.22;3.58;;;;;;;4.03;61.93;98676.41;7341187;19;20006;-72
2023/03/15 03:04:01;;;;;;;7.47;4.35;;;;;;;3.83;61.81;98673.19;7346863;19;20078;-74
2023/03/15 03:06:25;;;;;;;10.30;4.25;;;;;;;3.96;61.77;98676.75;7348383;19;20010;-76
2023/03/15 03:08:51;;;;;;;5.90;4.00;;;;;;;3.83;61.85;98686.34;7347982;19;20477;-72
2023/03/15 03:11:17;;;;;;;7.25;4.05;;;;;;;3.81;61.86;98680.31;7342010;19;20010;-71
2023/03/15 03:13:42;;;;;;;7.85;3.78;;;;;;;3.96;61.40;98676.75;7342380;19;20031;-73
2023/03/15 03:16:07;;;;;;;5.43;2.78;;;;;;;4.07;61.68;98685.81;7344961;19;20035;-72
2023/03/15 03:18:35;;;;;;;7.53;3.35;;;;;;;3.92;62.03;98688.44;7340985;19;20089;-76
2023/03/15 03:21:03;;;;;;;11.05;4.65;;;;;;;3.88;62.47;98689.56;7341595;19;20022;-74
2023/03/15 03:23:28;;;;;;;7.90;4.22;;;;;;;3.88;62.01;98694.81;7342227;19;20412;-77
2023/03/15 03:25:54;;;;;;;5.55;2.97;;;;;;;3.91;62.14;98705.19;7341503;19;20015;-75
2023/03/15 03:28:20;;;;;;;8.25;5.25;;;;;;;3.65;61.83;98695.31;7342031;19;20014;-73
2023/03/15 03:30:45;;;;;;;5.82;3.63;;;;;;;3.74;62.44;98694.78;7341373;19;20014;-78
2023/03/15 03:33:12;;;;;;;7.03;4.15;;;;;;;3.70;62.21;98685.38;7346819;19;20018;-79
2023/03/15 03:35:37;;;;;;;6.57;3.78;;;;;;;3.59;62.62;98691.28;7346820;19;20014;-75
2023/03/15 03:38:01;;;;;;;8.13;5.20;;;;;;;3.63;62.67;98684.88;7341683;19;20037;-78
2023/03/15 03:40:31;;;;;;;5.05;3.25;;;;;;;3.78;62.87;98698.94;7344266;19;20778;-75
2023/03/15 03:42:56;;;;;;;6.97;4.60;;;;;;;3.58;62.69;98691.38;7344139;19;20465;-73
2023/03/15 03:45:22;;;;;;;11.13;4.15;;;;;;;3.55;63.47;98681.84;7342110;19;20006;-72
2023/03/15 03:47:50;;;;;;;8.60;4.65;;;;;;;3.31;63.43;98692.94;7344153;19;20010;-75
2023/03/15 03:50:15;;;;;;;5.50;4.00;;;;;;;3.40;63.58;98706.44;7340921;19;20070;-74
2023/03/15 03:52:42;;;;;;;9.95;5.15;;;;;;;3.45;63.73;98703.53;7339211;19;20032;-74
2023/03/15 03:55:12;;;;;;;4.63;3.40;;;;;;;3.31;64.24;98704.34;7338906;19;20021;-74
2023/03/15 03:57:38;;;;;;;10.05;4.75;;;;;;;3.41;63.77;98705.50;7338293;19;20010;-73
2023/03/15 04:00:06;;;;;;;6.13;3.95;;;;;;;3.43;63.54;98713.31;7339041;19;20031;-73
2023/03/15 04:02:42;;;;;;;5.97;3.83;;;;;;;3.27;64.11;98719.44;7342993;19;20017;-72
2023/03/15 04:05:10;;;;;;;6.05;3.63;;;;;;;3.40;63.90;98710.84;7338845;19;20014;-73
2023/03/15 04:07:35;;;;;;;5.05;3.85;;;;;;;3.23;63.93;98722.38;7339114;19;20015;-74
2023/03/15 04:10:01;;;;;;;7.68;4.00;;;;;;;3.44;63.76;98715.03;7338592;19;20031;-74
2023/03/15 04:12:27;;;;;;;7.85;4.43;;;;;;;3.40;63.69;98726.66;7338603;19;20019;-73
2023/03/15 04:14:53;;;;;;;6.03;3.10;;;;;;;3.67;63.72;98711.91;7338737;19;20015;-74
2023/03/15 04:17:19;;;;;;;6.47;4.05;;;;;;;3.42;63.26;98708.97;7336782;19;20021;-73
2023/03/15 04:19:45;;;;;;;5.63;4.15;;;;;;;3.60;63.42;98716.69;7339075;19;20010;-73
2023/03/15 04:22:14;;;;;;;6.55;3.42;;;;;;;3.60;63.20;98715.84;7338273;19;20021;-74
2023/03/15 04:25:00;;;;;;;8.05;4.75;;;;;;;3.48;62.94;98709.50;7335236;19;20018;-74
2023/03/15 04:27:39;;;;;;;7.43;4.63;;;;;;;3.48;62.88;98712.13;7335716;19;20025;-74
2023/03/15 04:30:29;;;;;;;9.18;3.78;;;;;;;3.56;63.20;98703.78;7335475;19;20007;-74
2023/03/15 04:33:05;;;;;;;7.07;3.75;;;;;;;3.60;62.75;98714.06;7336231;19;20473;-75
2023/03/15 04:35:42;;;;;;;9.32;4.32;;;;;;;3.53;62.94;98714.47;7336001;19;20077;-75
2023/03/15 04:38:25;;;;;;;6.10;3.78;;;;;;;3.70;62.85;98710.88;7334962;19;20019;-76
2023/03/15 04:41:10;;;;;;;6.07;3.72;;;;;;;3.84;62.73;98713.53;7335480;19;20018;-74
2023/03/15 04:43:53;;;;;;;7.55;4.55;;;;;;;3.84;61.79;98714.38;7336081;19;20101;-75
2023/03/15 04:46:43;;;;;;;7.13;3.33;;;;;;;3.84;62.51;98718.81;7336107;19;20023;-75
2023/03/15 04:49:24;;;;;;;7.35;4.40;;;;;;;3.62;62.25;98735.88;7341662;19;20035;-76
2023/03/15 04:51:57;;;;;;;9.75;5.30;;;;;;;3.59;62.58;98730.81;7343505;19;20019;-74
2023/03/15 04:54:28;;;;;;;8.75;4.15;;;;;;;3.62;62.57;98732.41;7344371;19;20019;-76
2023/03/15 04:57:13;;;;;;;;;;;;;;;3.86;63.02;98728.34;7344628;19;20014;-75
2023/03/15 04:59:48;;;;;;;7.75;4.10;;;;;;;3.74;62.44;98749.28;7343425;19;19926;-76
2023/03/15 05:02:38;;;;;;;8.15;4.82;;;;;;;3.53;62.55;98746.97;7343909;19;20062;-74
2023/03/15 05:05:35;;;;;;;9.02;5.28;;;;;;;3.61;62.86;98749.19;7343069;19;20297;-73
2023/03/15 05:08:12;;;;;;;8.85;5.28;;;;;;;3.64;62.29;98744.56;7341896;19;20097;-74
2023/03/15 05:11:06;;;;;;;8.27;4.45;;;;;;;3.95;62.33;98748.88;7342622;19;20019;-76
2023/03/15 05:13:45;;;;;;;11.00;4.70;;;;;;;4.06;61.50;98744.78;7345760;19;20015;-79
2023/03/15 05:16:28;;;;;;;6.60;4.40;;;;;;;4.37;62.05;98752.56;7343935;19;20044;-78
2023/03/15 05:18:59;;;;;;;8.23;4.28;;;;;;;4.33;60.73;98758.94;7344031;19;20034;-78
2023/03/15 05:21:36;;;;;;;7.50;5.30;;;;;;;4.47;60.49;98756.34;7344542;19;20018;-78
2023/03/15 05:24:15;;;;;;;6.88;4.97;;;;;;;4.77;59.33;98758.88;7347004;19;20478;-76
2023/03/15 05:27:06;;;;;;;6.75;4.15;;;;;;;5.06;58.38;98759.72;7349778;19;20022;-77
2023/03/15 05:29:41;;;;;;;11.55;4.82;;;;;;;5.43;57.83;98759.03;7347511;19;20026;-79
2023/03/15 05:32:25;;;;;;;6.82;4.13;;;;;;;5.72;55.87;98758.94;7345402;19;20014;-79
2023/03/15 05:35:09;;;;;;;9.75;4.57;;;;;;;6.17;54.78;98753.28;7345173;19;20019;-78
2023/03/15 05:37:54;;;;;;;10.20;4.50;;;;;;;6.50;53.84;98773.94;7346552;19;20034;-76
2023/03/15 05:40:58;;;;;;;11.27;5.40;;;;;;;6.81;52.40;98769.16;7344636;19;20014;-79
2023/03/15 05:43:58;;;;;;;6.03;3.78;;;;;;;7.07;52.92;98783.22;7353133;19;20010;-76
2023/03/15 05:46:53;;;;;;;7.47;3.78;;;;;;;7.26;52.59;98786.25;7350788;19;20020;-79
2023/03/15 05:49:34;;;;;;;10.38;4.85;;;;;;;7.29;51.83;98794.84;7347119;19;20019;-78
2023/03/15 05:52:20;;;;;;;7.05;4.90;;;;;;;7.15;50.92;98770.28;7346193;19;20098;-78
2023/03/15 05:54:52;;;;;;;5.53;3.13;;;;;;;7.53;52.26;98773.66;7347377;19;20013;-77
2023/03/15 05:57:38;;;;;;;11.20;5.90;;;;;;;7.44;49.99;98766.38;7346733;19;20013;-77
2023/03/15 06:00:30;;;;;;;7.28;4.38;;;;;;;7.58;50.52;98778.63;7344441;19;20427;-76
2023/03/15 06:03:01;;;;;;;10.25;4.93;;;;;;;7.63;49.50;98773.84;7347257;19;20015;-78
2023/03/15 06:05:44;;;;;;;4.70;3.30;;;;;;;7.95;49.61;98763.50;7345398;19;20010;-76
2023/03/15 06:08:20;;;;;;;11.15;4.10;;;;;;;8.10;48.72;98780.09;7348217;19;20046;-80
2023/03/15 06:10:48;;;;;;;6.38;4.05;;;;;;;8.55;48.67;98767.81;7343628;19;20482;-78
2023/03/15 06:13:13;;;;;;;8.02;4.85;;;;;;;8.80;47.55;98791.53;7343446;19;20533;-79
2023/03/15 06:15:38;;;;;;;10.32;5.38;;;;;;;8.82;46.94;98772.78;7341985;19;20129;-81
2023/03/15 06:18:04;;;;;;;6.35;4.28;;;;;;;8.94;46.09;98785.09;7342290;19;20011;-79
2023/03/15 06:20:30;;;;;;;7.97;4.68;;;;;;;9.16;46.01;98769.16;7348210;19;20010;-80
2023/03/15 06:23:00;;;;;;;6.72;4.18;;;;;;;9.54;46.31;98766.09;7347384;19;20003;-78
2023/03/15 06:25:33;;;;;;;8.35;5.05;;;;;;;9.56;45.24;98792.56;7366697;19;20031;-79
2023/03/15 06:27:58;;;;;;;6.70;4.93;;;;;;;9.84;44.00;98771.56;7345253;19;20110;-77
2023/03/15 06:30:25;;;;;;;11.60;4.93;;;;;;;10.26;44.14;98773.50;7342713;19;20014;-78
2023/03/15 06:32:54;;;;;;;7.80;4.82;;;;;;;10.68;42.85;98775.16;7344073;19;20014;-74
2023/03/15 06:35:19;;;;;;;13.93;4.95;;;;;;;10.61;42.44;98771.31;7339136;19;20014;-75
2023/03/15 06:37:44;;;;;;;10.43;4.95;;;;;;;10.87;43.35;98779.75;7340310;19;20041;-78
2023/03/15 06:40:12;;;;;;;10.10;5.28;;;;;;;10.62;42.86;98790.81;7345428;19;20091;-72
2023/03/15 06:42:39;;;;;;;7.22;4.63;;;;;;;10.54;43.13;98783.50;7341780;19;20466;-73
2023/03/15 06:45:07;;;;;;;9.20;4.50;;;;;;;9.87;43.90;98793.56;7341452;19;20022;-72
2023/03/15 06:47:31;;;;;;;4.95;3.38;;;;;;;9.84;44.99;98784.88;7342388;19;20018;-72
2023/03/15 06:49:56;;;;;;;4.97;3.25;;;;;;;10.41;43.81;98793.50;7341101;19;20015;-74
2023/03/15 06:52:21;;;;;;;4.97;3.97;;;;;;;11.05;42.67;98788.84;7341673;19;20015;-74
2023/03/15 06:54:45;;;;;;;7.53;4.80;;;;;;;12.20;42.38;98798.13;7342961;19;20014;-75
2023/03/15 06:57:10;;;;;;;8.60;5.47;;;;;;;12.44;40.10;98790.53;7340770;19;20022;-75
2023/03/15 06:59:35;;;;;;;12.90;6.07;;;;;;;12.42;39.23;98789.81;7341213;19;20022;-77
2023/03/15 07:01:59;;;;;;;5.75;4.22;;;;;;;13.06;39.43;98805.19;7343857;19;20395;-77
2023/03/15 07:04:24;;;;;;;11.52;5.82;;;;;;;13.14;38.44;98799.09;7344598;19;20359;-76
2023/03/15 07:06:49;;;;;;;12.77;5.30;;;;;;;13.40;38.61;98805.53;7345737;19;20022;-74
2023/03/15 07:09:14;;;;;;;9.70;5.72;;;;;;;12.63;38.21;98789.69;7343355;19;20030;-77
2023/03/15 07:11:38;;;;;;;4.75;2.97;;;;;;;12.90;39.29;98804.94;7341764;19;20082;-75
2023/03/15 07:14:03;;;;;;;14.27;5.97;;;;;;;11.18;40.92;98800.09;7342550;19;20352;-77
2023/03/15 07:16:27;;;;;;;9.25;4.82;;;;;;;11.12;42.01;98799.81;7343088;19;20326;-76
2023/03/15 07:18:54;;;;;;;8.05;4.53;;;;;;;11.28;41.99;98795.69;7347282;19;20026;-76
2023/03/15 07:21:19;;;;;;;9.18;4.35;;;;;;;11.12;42.51;98795.31;7348125;19;20029;-76
2023/03/15 07:23:44;;;;;;;7.43;5.10;;;;;;;10.68;42.84;98806.31;7347732;19;20014;-76
2023/03/15 07:26:09;;;;;;;9.07;6.82;;;;;;;10.67;42.48;98818.78;7349270;19;20446;-77
2023/03/15 07:28:33;;;;;;;10.48;5.63;;;;;;;11.44;41.75;98805.00;7349871;19;20018;-77
2023/03/15 07:31:01;;;;;;;9.27;5.32;;;;;;;12.49;40.59;98814.16;7353230;19;20322;-77
2023/03/15 07:33:27;;;;;;;10.23;6.15;;;;;;;13.42;39.05;98820.44;7352120;19;20011;-78
2023/03/15 07:35:52;;;;;;;12.02;6.63;;;;;;;13.76;37.25;98827.91;7347662;19;20037;-77
2023/03/15 07:38:17;;;;;;;9.15;6.28;;;;;;;14.38;36.48;98812.78;7346003;19;20018;-74
2023/03/15 07:40:42;;;;;;;9.25;5.65;;;;;;;14.03;36.24;98809.09;7340831;19;20018;-73
2023/03/15 07:43:06;;;;;;;11.57;5.28;;;;;;;13.16;37.80;98821.25;7343148;19;20897;-74
2023/03/15 07:45:32;;;;;;;9.63;6.53;;;;;;;12.38;39.43;98827.69;7347958;19;20045;-74
2023/03/15 07:47:57;;;;;;;11.25;6.50;;;;;;;11.95;40.01;98827.09;7341217;19;20432;-72
2023/03/15 07:50:22;;;;;;;7.45;5.05;;;;;;;12.39;41.19;98819.53;7343810;19;20616;-73
2023/03/15 07:52:46;;;;;;;12.15;6.07;;;;;;;11.73;40.58;98826.44;7342735;19;20007;-73
2023/03/15 07:55:11;;;;;;;8.50;5.45;;;;;;;11.93;40.94;98810.34;7343562;19;20073;-72
2023/03/15 07:57:37;;;;;;;8.25;5.18;;;;;;;11.55;40.93;98812.91;7342227;19;20024;-74
2023/03/15 08:00:02;;;;;;;8.05;5.47;;;;;;;11.53;41.79;98823.69;7340349;19;20007;-74
2023/03/15 08:02:37;;;;;;;10.23;5.70;;;;;;;11.26;42.55;98823.47;7340488;19;20015;-73
2023/03/15 08:05:03;;;;;;;9.10;5.90;;;;;;;10.97;42.97;98831.31;7342569;19;20014;-75
2023/03/15 08:07:27;;;;;;;5.10;3.60;;;;;;;11.35;44.09;98841.34;7344933;19;20015;-79
2023/03/15 08:09:52;;;;;;;9.45;6.13;;;;;;;9.93;44.94;98846.34;7341661;19;20025;-77
2023/03/15 08:12:17;;;;;;;11.02;5.53;;;;;;;9.57;46.53;98837.69;7338723;19;20015;-78
2023/03/15 08:14:41;;;;;;;13.07;8.20;;;;;;;9.29;46.12;98825.72;7339419;19;20007;-77
2023/03/15 08:17:11;;;;;;;9.65;6.90;;;;;;;8.89;47.49;98841.31;7337579;19;20358;-77
2023/03/15 08:19:35;;;;;;;12.85;6.25;;;;;;;9.29;47.27;98836.38;7343350;19;20018;-78
2023/03/15 08:22:00;;;;;;;10.25;7.22;;;;;;;9.24;47.31;98848.34;7350265;19;20512;-78
2023/03/15 08:24:25;;;;;;;14.23;6.60;;;;;;;9.28;47.40;98847.97;7352259;19;20018;-79
2023/03/15 08:26:50;;;;;;;13.05;6.55;;;;;;;9.50;46.62;98854.25;7355629;19;20116;-76
2023/03/15 08:29:15;;;;;;;13.35;8.48;;;;;;;8.94;47.46;98847.09;7359849;19;20022;-74
2023/03/15 08:31:40;;;;;;;11.82;6.70;;;;;;;9.57;47.46;98851.00;7353922;19;20502;-77
2023/03/15 08:34:05;;;;;;;9.15;6.43;;;;;;;9.82;46.29;98836.53;7351191;19;20470;-78
2023/03/15 08:36:31;;;;;;;10.60;7.22;;;;;;;10.04;46.01;98848.97;7350735;19;20473;-77
2023/03/15 08:38:56;;;;;;;10.80;6.38;;;;;;;10.13;45.98;98849.06;7346700;19;20025;-78
2023/03/15 08:41:20;;;;;;;14.38;7.00;;;;;;;9.97;46.20;98855.75;7347674;19;20007;-77
2023/03/15 08:43:45;;;;;;;13.23;7.93;;;;;;;9.90;46.48;98858.06;7347995;19;20018;-76
2023/03/15 08:46:10;;;;;;;8.20;6.03;;;;;;;10.05;46.57;98850.63;7349978;19;20478;-78
2023/03/15 08:48:34;;;;;;;10.82;6.95;;;;;;;9.84;46.53;98843.44;7352934;19;20019;-78
2023/03/15 08:51:04;;;;;;;11.32;7.53;;;;;;;9.83;47.06;98868.34;7348939;19;20022;-77
2023/03/15 08:53:30;;;;;;;9.82;6.88;;;;;;;9.64;47.07;98861.97;7347459;19;20017;-80
2023/03/15 08:55:54;;;;;;;9.75;7.25;;;;;;;9.56;47.41;98846.63;7347537;19;20494;-78
2023/03/15 08:58:19;;;;;;;10.43;6.72;;;;;;;9.41;47.92;98855.81;7350538;19;20608;-78
2023/03/15 09:00:44;;;;;;;11.57;6.40;;;;;;;9.52;48.22;98855.81;7349885;19;20007;-79
2023/03/15 09:03:08;;;;;;;9.95;6.22;;;;;;;9.52;47.38;98866.47;7351786;19;20014;-78
2023/03/15 09:05:33;;;;;;;10.00;6.00;;;;;;;9.82;47.68;98861.34;7351492;19;20038;-78
2023/03/15 09:07:59;;;;;;;15.68;9.02;;;;;;;9.33;47.82;98852.94;7347186;19;20038;-78
2023/03/15 09:10:23;;;;;;;12.85;7.18;;;;;;;9.38;48.70;98856.91;7347499;19;20017;-74
2023/03/15 09:12:51;;;;;;;11.98;7.70;;;;;;;9.21;48.26;98856.56;7346858;19;20023;-75
2023/03/15 09:15:16;;;;;;;11.32;8.60;;;;;;;8.72;49.68;98853.22;7350800;19;20011;-75
2023/03/15 09:17:41;;;;;;;10.27;5.45;;;;;;;9.45;49.33;98876.75;7346778;19;20026;-74
2023/03/15 09:20:13;;;;;;;10.68;6.85;;;;;;;9.23;49.19;98859.94;7355930;19;20302;-73
2023/03/15 09:22:38;;;;;;;10.23;6.22;;;;;;;9.25;48.92;98855.34;7354510;19;20070;-72
2023/03/15 09:25:03;;;;;;;12.25;5.80;;;;;;;9.00;49.42;98856.41;7353265;19;20014;-75
2023/03/15 09:27:31;;;;;;;11.18;6.18;;;;;;;8.80;51.28;98865.94;7349725;19;20021;-74
2023/03/15 09:29:57;;;;;;;14.07;7.55;;;;;;;8.44;51.12;98850.13;7344918;19;20470;-74
2023/03/15 09:32:21;;;;;;;9.85;6.22;;;;;;;8.06;51.98;98850.28;7344659;19;20474;-74
2023/03/15 09:34:46;;;;;;;10.48;6.07;;;;;;;8.09;51.91;98853.56;7345050;19;20018;-74
2023/03/15 09:37:10;;;;;;;12.07;7.72;;;;;;;7.78;53.07;98851.47;7347996;19;20006;-77
2023/03/15 09:39:35;;;;;;;14.02;7.68;;;;;;;7.92;53.24;98851.28;7344266;19;20014;-75
2023/03/15 09:42:01;;;;;;;9.65;6.70;;;;;;;7.95;53.21;98841.31;7346397;19;20335;-78
2023/03/15 09:44:53;;;;;;;9.90;7.25;;;;;;;8.19;53.03;98849.28;7346506;19;20018;-76
2023/03/15 09:47:37;;;;;;;10.90;7.30;;;;;;;8.33;52.52;98845.63;7347688;19;20026;-76
2023/03/15 09:50:12;;;;;;;14.55;7.95;;;;;;;8.07;52.86;98844.88;7344572;19;20034;-76
2023/03/15 09:52:45;;;;;;;10.23;7.45;;;;;;;8.24;52.70;98856.91;7346946;19;20298;-76
2023/03/15 09:55:25;;;;;;;16.98;9.20;;;;;;;8.39;53.48;98866.41;7345023;19;20042;-76
2023/03/15 09:58:09;;;;;;;13.85;7.60;;;;;;;8.46;52.66;98856.19;7343095;19;20739;-77
2023/03/15 10:00:39;;;;;;;12.77;6.78;;;;;;;8.55;52.88;98845.69;7344925;19;20014;-79
2023/03/15 10:03:08;;;;;;;18.30;7.93;;;;;;;8.73;52.42;98846.09;7345373;19;20015;-79
2023/03/15 10:05:44;;;;;;;11.68;6.57;;;;;;;8.96;51.54;98831.88;7344530;19;20019;-77
2023/03/15 10:08:13;;;;;;;10.10;7.40;;;;;;;8.83;51.81;98828.47;7345203;19;20020;-78
2023/03/15 10:11:00;;;;;;;14.18;7.45;;;;;;;8.92;51.17;98835.72;7344023;19;20045;-78
2023/03/15 10:13:43;;;;;;;11.32;8.82;;;;;;;8.70;51.81;98822.41;7343976;19;20074;-77
2023/03/15 10:16:11;;;;;;;16.23;6.80;;;;;;;9.17;51.21;98841.78;7344309;19;20473;-79
2023/03/15 10:18:42;;;;;;;10.40;6.50;;;;;;;9.51;50.94;98829.34;7342881;19;20017;-77
2023/03/15 10:21:15;;;;;;;8.73;5.65;;;;;;;9.73;50.65;98830.13;7344364;19;20022;-77
2023/03/15 10:23:42;;;;;;;13.00;8.13;;;;;;;10.03;49.54;98831.28;7347783;19;20015;-76
2023/03/15 10:26:13;;;;;;;9.25;6.72;;;;;;;9.95;49.36;98828.38;7348636;19;20350;-75
2023/03/15 10:28:38;;;;;;;10.93;8.52;;;;;;;9.45;49.84;98839.50;7345721;19;20018;-74
2023/03/15 10:31:12;;;;;;;9.82;6.95;;;;;;;9.31;50.03;98826.44;7345380;19;20018;-75
2023/03/15 10:33:38;;;;;;;9.70;6.80;;;;;;;9.26;51.04;98825.97;7343825;19;20023;-76
2023/03/15 10:36:13;;;;;;;11.60;6.80;;;;;;;9.44;50.66;98835.16;7343583;19;20027;-73
2023/03/15 10:38:40;;;;;;;10.68;7.45;;;;;;;9.18;50.62;98822.22;7340236;19;20015;-74
2023/03/15 10:41:05;;;;;;;8.95;6.22;;;;;;;9.51;50.68;98842.63;7342309;19;20023;-75
2023/03/15 10:43:36;;;;;;;12.50;6.00;;;;;;;9.41;51.05;98846.03;7346400;19;20029;-75
2023/03/15 10:46:06;;;;;;;7.93;5.63;;;;;;;9.30;51.32;98839.88;7341539;19;20026;-78
2023/03/15 10:48:33;;;;;;;12.98;7.38;;;;;;;9.14;51.50;98840.25;7345219;19;20006;-78
2023/03/15 10:51:17;;;;;;;9.35;6.35;;;;;;;9.10;52.17;98850.28;7344922;19;20021;-78
2023/03/15 10:53:52;;;;;;;8.40;5.15;;;;;;;8.95;52.03;98842.63;7344278;19;20473;-79
2023/03/15 10:56:24;;;;;;;10.98;6.70;;;;;;;8.72;52.53;98837.28;7343163;19;20025;-75
2023/03/15 10:58:52;;;;;;;13.15;6.97;;;;;;;8.76;52.44;98843.22;7343628;19;20026;-76
2023/03/15 11:01:34;;;;;;;6.00;3.95;;;;;;;9.22;51.65;98840.47;7352100;19;20430;-78
2023/03/15 11:04:19;;;;;;;11.68;4.82;;;;;;;9.22;51.16;98853.78;7355330;19;20112;-76
2023/03/15 11:06:45;;;;;;;9.35;6.47;;;;;;;8.78;52.55;98840.44;7354059;19;20018;-75
2023/03/15 11:09:13;;;;;;;10.75;6.65;;;;;;;8.70;52.76;98843.66;7353370;19;20015;-76
2023/03/15 11:12:28;;;;;;;8.75;5.03;;;;;;;8.88;53.01;98846.72;7352053;19;20334;-78
2023/03/15 11:14:59;;;;;;;10.23;7.40;;;;;;;8.45;53.00;98855.31;7341062;19;20014;-76
2023/03/15 11:17:28;;;;;;;14.90;5.72;;;;;;;8.54;53.31;98854.63;7343338;19;20011;-73
2023/03/15 11:19:58;;;;;;;14.63;7.05;;;;;;;8.03;54.90;98869.94;7339765;19;20018;-74
2023/03/15 11:22:23;;;;;;;11.18;5.93;;;;;;;8.22;54.80;98864.13;7340363;19;20050;-76
2023/03/15 11:24:49;;;;;;;10.13;7.38;;;;;;;8.12;54.38;98841.88;7338807;19;20018;-75
2023/03/15 11:27:16;;;;;;;11.82;6.32;;;;;;;8.49;53.93;98856.78;7339203;19;20025;-74
2023/03/15 11:29:48;;;;;;;12.40;5.75;;;;;;;8.24;54.47;98854.25;7338166;19;20006;-76
2023/03/15 11:32:21;;;;;;;11.05;6.07;;;;;;;8.44;54.34;98861.59;7339556;19;20037;-74
2023/03/15 11:35:01;;;;;;;12.30;6.40;;;;;;;8.34;55.27;98847.31;7343698;19;20041;-77
2023/03/15 11:37:33;;;;;;;11.20;6.10;;;;;;;8.31;54.38;98844.84;7341956;19;20023;-75
2023/03/15 11:40:08;;;;;;;12.05;8.48;;;;;;;8.21;54.86;98854.47;7339386;19;20007;-74
2023/03/15 11:42:37;;;;;;;11.80;6.47;;;;;;;8.62;54.97;98862.00;7341160;19;20022;-78
2023/03/15 11:45:17;;;;;;;10.35;5.70;;;;;;;8.66;54.82;98839.56;7343555;19;20021;-75
2023/03/15 11:47:49;;;;;;;10.45;6.63;;;;;;;8.31;54.69;98837.75;7342487;19;20010;-73
2023/03/15 11:50:15;;;;;;;11.60;7.45;;;;;;;8.33;54.85;98830.53;7342720;19;20366;-76
2023/03/15 11:52:41;;;;;;;10.40;6.82;;;;;;;8.28;55.21;98840.63;7346199;19;20010;-79